Time;durP1;ratioP1;P1;durP2;ratioP2;P2;SDS_P1;SDS_P2;PMS_P1;PMS_P2;Temp;Humidity;BMP_temperature;BMP_pressure;BME280_temperature;BME280_humidity;BME280_pressure;Samples;Min_cycle;Max_cycle;Signal;HPM_P1;HPM_P2
2022/10/19 00:02:12;;;;;;;5.13;2.00;;;;;;;;;;5019172;28;20029;-86
2022/10/19 00:04:40;;;;;;;5.28;2.10;;;;;;;;;;5017134;28;20125;-86
2022/10/19 00:07:05;;;;;;;4.70;2.45;;;;;;;;;;5014075;28;20025;-86
2022/10/19 00:09:30;;;;;;;5.68;2.25;;;;;;;;;;5010720;28;20445;-87
2022/10/19 00:11:56;;;;;;;4.35;1.90;;;;;;;;;;5021825;28;20059;-86
2022/10/19 00:14:22;;;;;;;4.95;2.10;;;;;;;;;;5014384;28;20048;-86
2022/10/19 00:16:50;;;;;;;3.80;2.10;;;;;;;;;;5021071;28;20084;-87
2022/10/19 00:19:21;;;;;;;4.63;2.08;;;;;;;;;;5017943;28;20104;-86
2022/10/19 00:21:47;;;;;;;4.90;2.38;;;;;;;;;;5019379;28;20037;-86
2022/10/19 00:24:13;;;;;;;7.10;2.10;;;;;;;;;;5015628;28;20054;-87
2022/10/19 00:26:39;;;;;;;6.15;2.30;;;;;;;;;;5018734;28;20021;-86
2022/10/19 00:29:04;;;;;;;5.03;2.00;;;;;;;;;;5014850;28;20109;-86
2022/10/19 00:31:37;;;;;;;5.60;2.30;;;;;;;;;;5010609;28;20029;-85
2022/10/19 00:34:03;;;;;;;5.28;2.10;;;;;;;;;;5023036;28;20116;-86
2022/10/19 00:36:31;;;;;;;5.32;1.90;;;;;;;;;;5012879;28;20536;-86
2022/10/19 00:38:57;;;;;;;5.20;2.05;;;;;;;;;;5015637;28;20028;-86
2022/10/19 00:41:25;;;;;;;3.88;1.95;;;;;;;;;;5022781;28;20025;-86
2022/10/19 00:43:53;;;;;;;4.35;1.98;;;;;;;;;;5023293;28;20029;-87
2022/10/19 00:46:18;;;;;;;4.32;2.00;;;;;;;;;;5018241;28;20024;-86
2022/10/19 00:48:44;;;;;;;6.20;2.10;;;;;;;;;;5017244;28;20022;-86
2022/10/19 00:51:09;;;;;;;3.72;2.20;;;;;;;;;;5020023;28;20021;-86
2022/10/19 00:53:36;;;;;;;3.97;1.90;;;;;;;;;;5012138;28;20018;-86
2022/10/19 00:56:06;;;;;;;3.80;1.90;;;;;;;;;;5017536;28;20644;-86
2022/10/19 00:58:32;;;;;;;5.88;2.03;;;;;;;;;;5015592;28;20076;-86
2022/10/19 01:03:33;;;;;;;4.25;1.90;;;;;;;;;;5621641;23;20512;-84
2022/10/19 01:06:00;;;;;;;5.80;1.92;;;;;;;;;;5002074;28;20037;-84
2022/10/19 01:08:26;;;;;;;4.70;1.88;;;;;;;;;;5000478;28;20038;-84
2022/10/19 01:11:03;;;;;;;3.78;1.85;;;;;;;;;;4985685;28;20038;-84
2022/10/19 01:13:31;;;;;;;4.43;2.00;;;;;;;;;;4983583;28;20489;-84
2022/10/19 01:16:05;;;;;;;5.93;2.00;;;;;;;;;;4990096;28;20377;-84
2022/10/19 01:18:42;;;;;;;4.30;2.08;;;;;;;;;;4984560;28;20485;-84
2022/10/19 01:21:20;;;;;;;5.13;2.15;;;;;;;;;;4984616;28;20144;-84
2022/10/19 01:23:51;;;;;;;4.53;2.15;;;;;;;;;;4983833;28;20084;-84
2022/10/19 01:26:46;;;;;;;4.75;1.92;;;;;;;;;;4988616;28;20026;-84
2022/10/19 01:29:35;;;;;;;4.30;1.90;;;;;;;;;;4975953;28;20038;-84
2022/10/19 01:32:45;;;;;;;4.10;2.08;;;;;;;;;;5005966;28;20401;-84
2022/10/19 01:35:17;;;;;;;3.60;1.98;;;;;;;;;;5005088;28;20026;-84
2022/10/19 01:37:47;;;;;;;4.53;2.10;;;;;;;;;;4993186;28;20077;-84
2022/10/19 01:40:29;;;;;;;4.90;2.00;;;;;;;;;;4990219;28;20033;-84
2022/10/19 01:43:19;;;;;;;3.72;2.03;;;;;;;;;;5006945;28;20030;-84
2022/10/19 01:45:56;;;;;;;3.97;1.90;;;;;;;;;;4992541;28;20030;-84
2022/10/19 01:48:28;;;;;;;7.05;2.58;;;;;;;;;;4992730;28;20056;-84
2022/10/19 01:51:00;;;;;;;6.72;2.05;;;;;;;;;;5011031;28;20125;-84
2022/10/19 01:53:29;;;;;;;4.45;2.15;;;;;;;;;;4989945;28;20021;-84
2022/10/19 01:55:56;;;;;;;6.57;2.25;;;;;;;;;;5008987;28;20378;-84
2022/10/19 01:58:27;;;;;;;5.28;2.38;;;;;;;;;;4991437;28;20465;-84
2022/10/19 02:00:57;;;;;;;3.90;2.03;;;;;;;;;;5004881;28;20037;-84
2022/10/19 02:03:24;;;;;;;6.70;2.30;;;;;;;;;;4987821;28;20049;-84
2022/10/19 02:05:52;;;;;;;8.32;2.50;;;;;;;;;;4990273;28;20034;-84
2022/10/19 02:08:30;;;;;;;4.95;2.08;;;;;;;;;;4989142;28;20485;-84
2022/10/19 02:10:58;;;;;;;7.75;2.40;;;;;;;;;;5004701;28;20018;-84
2022/10/19 02:13:26;;;;;;;5.15;2.20;;;;;;;;;;4987506;28;20079;-84
2022/10/19 02:15:55;;;;;;;5.78;2.60;;;;;;;;;;5005992;28;20026;-83
2022/10/19 02:18:27;;;;;;;3.97;2.17;;;;;;;;;;5003012;28;20033;-84
2022/10/19 02:20:56;;;;;;;6.07;2.30;;;;;;;;;;5007664;28;20108;-84
2022/10/19 02:23:24;;;;;;;4.88;2.22;;;;;;;;;;4994606;28;20344;-84
2022/10/19 02:25:50;;;;;;;3.38;2.17;;;;;;;;;;4989065;28;20054;-84
2022/10/19 02:28:16;;;;;;;6.05;2.25;;;;;;;;;;4990615;28;20053;-84
2022/10/19 02:30:41;;;;;;;7.38;2.40;;;;;;;;;;4988582;28;20118;-84
2022/10/19 02:33:07;;;;;;;4.75;2.30;;;;;;;;;;4990951;28;20053;-84
2022/10/19 02:35:32;;;;;;;4.35;2.30;;;;;;;;;;4990236;28;20377;-84
2022/10/19 02:38:01;;;;;;;4.18;2.17;;;;;;;;;;4987531;28;20064;-84
2022/10/19 02:40:30;;;;;;;5.18;2.30;;;;;;;;;;4992021;28;20037;-84
2022/10/19 02:43:11;;;;;;;6.97;2.38;;;;;;;;;;4989753;28;20072;-84
2022/10/19 02:45:42;;;;;;;4.57;2.53;;;;;;;;;;4992791;28;20018;-84
2022/10/19 02:48:18;;;;;;;5.20;2.63;;;;;;;;;;4986981;28;20040;-84
2022/10/19 02:50:46;;;;;;;5.25;2.50;;;;;;;;;;4991010;28;20545;-84
2022/10/19 02:53:12;;;;;;;7.85;3.13;;;;;;;;;;4996063;28;20458;-84
2022/10/19 02:55:38;;;;;;;5.22;2.45;;;;;;;;;;4992427;28;20041;-84
2022/10/19 02:58:03;;;;;;;6.70;2.95;;;;;;;;;;4994634;28;20041;-84
2022/10/19 03:00:28;;;;;;;7.00;2.85;;;;;;;;;;4989167;28;20488;-84
2022/10/19 03:02:54;;;;;;;7.40;3.17;;;;;;;;;;4987373;28;20034;-83
2022/10/19 03:05:19;;;;;;;4.35;2.65;;;;;;;;;;4991886;28;20029;-84
2022/10/19 03:07:44;;;;;;;5.35;3.05;;;;;;;;;;4987771;28;20036;-83
2022/10/19 03:10:10;;;;;;;5.40;2.95;;;;;;;;;;4990629;28;20038;-84
2022/10/19 03:12:35;;;;;;;6.30;3.20;;;;;;;;;;4987253;28;20057;-84
2022/10/19 03:15:00;;;;;;;7.38;3.45;;;;;;;;;;5009965;28;20030;-83
2022/10/19 03:17:26;;;;;;;6.93;3.20;;;;;;;;;;5005002;28;20038;-84
2022/10/19 03:19:51;;;;;;;8.70;3.40;;;;;;;;;;4989624;28;20553;-83
2022/10/19 03:22:17;;;;;;;8.82;3.53;;;;;;;;;;4990159;28;20038;-84
2022/10/19 03:24:42;;;;;;;4.28;2.80;;;;;;;;;;4988256;28;20112;-84
2022/10/19 03:27:08;;;;;;;7.70;3.40;;;;;;;;;;5007335;28;20072;-84
2022/10/19 03:29:33;;;;;;;7.18;3.22;;;;;;;;;;5007295;28;20061;-84
2022/10/19 03:31:58;;;;;;;6.68;2.90;;;;;;;;;;4995173;28;20029;-83
2022/10/19 03:34:24;;;;;;;8.90;3.30;;;;;;;;;;4985803;23;20055;-84
2022/10/19 03:36:49;;;;;;;5.45;3.30;;;;;;;;;;4966220;28;20386;-83
2022/10/19 03:39:15;;;;;;;7.47;3.25;;;;;;;;;;4970297;28;20031;-84
2022/10/19 03:41:44;;;;;;;5.75;3.10;;;;;;;;;;4965887;28;20121;-83
2022/10/19 03:44:11;;;;;;;5.90;3.08;;;;;;;;;;4969371;28;20031;-83
2022/10/19 03:46:37;;;;;;;5.15;3.08;;;;;;;;;;4968420;28;20031;-83
2022/10/19 03:49:03;;;;;;;7.53;3.30;;;;;;;;;;4971138;28;20022;-83
2022/10/19 03:51:30;;;;;;;5.30;3.60;;;;;;;;;;4967204;28;20030;-83
2022/10/19 03:54:00;;;;;;;6.60;3.67;;;;;;;;;;4966340;28;20036;-83
2022/10/19 03:56:28;;;;;;;7.82;3.58;;;;;;;;;;4969025;28;20058;-83
2022/10/19 03:58:55;;;;;;;6.47;3.80;;;;;;;;;;4983244;28;20442;-83
2022/10/19 04:01:26;;;;;;;7.30;3.65;;;;;;;;;;4967757;28;20035;-83
2022/10/19 04:04:12;;;;;;;6.35;3.65;;;;;;;;;;4966313;28;20296;-83
2022/10/19 04:06:40;;;;;;;5.85;3.35;;;;;;;;;;4963654;28;20034;-84
2022/10/19 04:09:07;;;;;;;5.25;3.55;;;;;;;;;;4984957;28;20478;-84
2022/10/19 04:11:33;;;;;;;5.38;3.35;;;;;;;;;;4982505;28;20475;-83
2022/10/19 04:13:59;;;;;;;5.55;3.63;;;;;;;;;;4981182;28;20054;-83
2022/10/19 04:16:27;;;;;;;6.93;3.85;;;;;;;;;;4984152;28;20054;-83
2022/10/19 04:18:53;;;;;;;7.90;3.78;;;;;;;;;;4967953;28;20482;-83
2022/10/19 04:21:30;;;;;;;5.97;3.50;;;;;;;;;;4969046;28;20079;-83
2022/10/19 04:24:01;;;;;;;6.22;3.50;;;;;;;;;;4964938;28;20069;-83
2022/10/19 04:26:27;;;;;;;7.18;3.70;;;;;;;;;;4968510;28;20030;-83
2022/10/19 04:28:52;;;;;;;5.47;3.30;;;;;;;;;;4978784;28;20034;-83
2022/10/19 04:31:18;;;;;;;6.55;3.47;;;;;;;;;;4968711;28;20117;-83
2022/10/19 04:33:43;;;;;;;5.72;3.70;;;;;;;;;;4970666;28;20035;-83
2022/10/19 04:36:10;;;;;;;6.78;3.90;;;;;;;;;;4969256;28;20034;-83
2022/10/19 04:38:37;;;;;;;6.50;4.03;;;;;;;;;;4988871;28;20525;-84
2022/10/19 04:41:04;;;;;;;5.30;3.03;;;;;;;;;;4981105;28;20061;-83
2022/10/19 04:43:29;;;;;;;7.53;3.92;;;;;;;;;;4974388;28;20052;-83
2022/10/19 04:45:55;;;;;;;5.97;3.83;;;;;;;;;;4969125;28;20030;-83
2022/10/19 04:48:20;;;;;;;7.85;3.58;;;;;;;;;;4990629;28;20365;-83
2022/10/19 04:50:45;;;;;;;5.70;3.55;;;;;;;;;;4991845;28;20109;-83
2022/10/19 04:53:11;;;;;;;5.18;3.70;;;;;;;;;;4965682;28;20437;-83
2022/10/19 04:55:42;;;;;;;5.97;3.50;;;;;;;;;;4984524;28;20053;-84
2022/10/19 04:58:08;;;;;;;6.35;3.50;;;;;;;;;;4967059;28;20026;-84
2022/10/19 05:00:33;;;;;;;7.53;4.10;;;;;;;;;;4987285;28;20544;-83
2022/10/19 05:02:59;;;;;;;5.35;3.80;;;;;;;;;;4986842;28;20022;-83
2022/10/19 05:05:25;;;;;;;5.97;3.92;;;;;;;;;;4983833;28;20034;-83
2022/10/19 05:07:51;;;;;;;6.18;3.85;;;;;;;;;;4981719;28;20097;-83
2022/10/19 05:10:16;;;;;;;7.10;3.80;;;;;;;;;;4991686;28;20057;-83
2022/10/19 05:12:41;;;;;;;7.15;3.90;;;;;;;;;;4991609;28;20105;-83
2022/10/19 05:15:08;;;;;;;6.57;4.22;;;;;;;;;;4985191;28;20042;-83
2022/10/19 05:17:33;;;;;;;8.98;4.18;;;;;;;;;;4992187;28;20030;-83
2022/10/19 05:19:58;;;;;;;5.72;3.80;;;;;;;;;;4993116;28;20027;-83
2022/10/19 05:22:24;;;;;;;6.85;4.07;;;;;;;;;;4973541;28;20030;-83
2022/10/19 05:24:49;;;;;;;7.35;4.07;;;;;;;;;;4984261;28;20088;-83
2022/10/19 05:27:15;;;;;;;7.50;4.30;;;;;;;;;;4989934;28;20038;-83
2022/10/19 05:29:43;;;;;;;6.13;4.07;;;;;;;;;;4973770;28;20121;-83
2022/10/19 05:32:08;;;;;;;6.50;4.32;;;;;;;;;;4991145;28;20037;-83
2022/10/19 05:34:34;;;;;;;6.97;4.18;;;;;;;;;;4973376;28;20141;-83
2022/10/19 05:36:59;;;;;;;5.63;4.10;;;;;;;;;;4991524;28;20686;-83
2022/10/19 05:39:25;;;;;;;5.55;3.78;;;;;;;;;;4974962;28;20137;-83
2022/10/19 05:41:50;;;;;;;6.88;4.47;;;;;;;;;;4995006;28;20037;-83
2022/10/19 05:44:22;;;;;;;6.93;3.92;;;;;;;;;;4989831;28;21142;-83
2022/10/19 05:46:48;;;;;;;6.03;4.22;;;;;;;;;;4995050;28;20023;-84
2022/10/19 05:49:16;;;;;;;9.57;4.32;;;;;;;;;;4977249;28;20034;-83
2022/10/19 05:51:42;;;;;;;6.00;4.18;;;;;;;;;;4968779;28;20030;-84
2022/10/19 05:54:08;;;;;;;6.72;4.22;;;;;;;;;;4990494;28;20852;-83
2022/10/19 05:56:34;;;;;;;6.43;4.45;;;;;;;;;;4969016;28;20077;-84
2022/10/19 05:59:03;;;;;;;5.95;3.85;;;;;;;;;;4966280;28;20038;-83
2022/10/19 06:01:29;;;;;;;6.80;3.90;;;;;;;;;;4993000;28;20034;-83
2022/10/19 06:03:58;;;;;;;7.03;4.18;;;;;;;;;;5000065;28;20116;-83
2022/10/19 06:06:24;;;;;;;5.63;3.90;;;;;;;;;;4990504;28;20062;-83
2022/10/19 06:08:51;;;;;;;5.40;3.80;;;;;;;;;;4971362;28;20446;-83
2022/10/19 06:11:26;;;;;;;6.13;3.88;;;;;;;;;;4991312;28;20382;-83
2022/10/19 06:13:54;;;;;;;8.13;4.22;;;;;;;;;;4992526;28;20471;-83
2022/10/19 06:16:20;;;;;;;11.23;3.97;;;;;;;;;;4975253;28;20054;-83
2022/10/19 06:18:46;;;;;;;5.53;3.85;;;;;;;;;;4972210;28;20046;-83
2022/10/19 06:21:19;;;;;;;5.55;3.55;;;;;;;;;;4980402;28;20533;-83
2022/10/19 06:23:49;;;;;;;6.10;3.50;;;;;;;;;;4976765;28;20464;-83
2022/10/19 06:26:14;;;;;;;8.85;3.70;;;;;;;;;;4973802;28;20485;-83
2022/10/19 06:28:42;;;;;;;4.80;3.40;;;;;;;;;;4993120;28;20042;-83
2022/10/19 06:31:08;;;;;;;6.20;3.47;;;;;;;;;;4993910;28;20022;-83
2022/10/19 06:33:33;;;;;;;5.47;3.50;;;;;;;;;;4980858;28;20033;-83
2022/10/19 06:36:17;;;;;;;6.38;3.63;;;;;;;;;;4971801;28;20026;-83
2022/10/19 06:38:43;;;;;;;6.93;3.25;;;;;;;;;;4967975;28;20595;-83
2022/10/19 06:41:09;;;;;;;4.68;3.28;;;;;;;;;;4985757;28;20096;-83
2022/10/19 06:43:34;;;;;;;5.15;3.22;;;;;;;;;;4976194;28;20032;-83
2022/10/19 06:46:08;;;;;;;6.28;3.17;;;;;;;;;;4991377;28;20026;-84
2022/10/19 06:48:33;;;;;;;4.88;3.10;;;;;;;;;;4991702;28;20081;-84
2022/10/19 06:51:00;;;;;;;5.57;3.13;;;;;;;;;;4985666;28;20023;-84
2022/10/19 06:53:27;;;;;;;5.40;3.05;;;;;;;;;;4980387;28;20483;-84
2022/10/19 06:55:56;;;;;;;5.00;3.00;;;;;;;;;;4988717;28;20101;-84
2022/10/19 06:58:21;;;;;;;6.18;3.20;;;;;;;;;;4993883;28;20025;-84
2022/10/19 07:00:56;;;;;;;5.68;3.05;;;;;;;;;;4985012;28;20055;-84
2022/10/19 07:03:23;;;;;;;6.75;3.20;;;;;;;;;;4987775;28;20034;-84
2022/10/19 07:06:00;;;;;;;6.97;3.22;;;;;;;;;;4979998;28;20033;-84
2022/10/19 07:08:28;;;;;;;6.25;3.47;;;;;;;;;;4991072;28;20045;-84
2022/10/19 07:10:56;;;;;;;5.50;3.13;;;;;;;;;;4975987;28;20849;-84
2022/10/19 07:13:21;;;;;;;3.90;2.72;;;;;;;;;;4985868;28;20109;-84
2022/10/19 07:15:47;;;;;;;6.25;3.55;;;;;;;;;;4992365;28;20101;-84
2022/10/19 07:18:13;;;;;;;6.10;3.25;;;;;;;;;;4975920;28;20474;-84
2022/10/19 07:20:39;;;;;;;4.55;3.00;;;;;;;;;;4987647;28;20028;-84
2022/10/19 07:23:04;;;;;;;5.80;2.92;;;;;;;;;;4989236;28;20030;-84
2022/10/19 07:25:29;;;;;;;8.13;3.60;;;;;;;;;;4988532;28;20126;-85
2022/10/19 07:27:56;;;;;;;6.13;3.60;;;;;;;;;;4985148;28;20034;-84
2022/10/19 07:30:22;;;;;;;4.95;3.25;;;;;;;;;;4974985;28;20507;-84
2022/10/19 07:32:47;;;;;;;5.68;3.25;;;;;;;;;;4987660;28;20548;-84
2022/10/19 07:35:13;;;;;;;7.97;3.88;;;;;;;;;;4995032;28;20047;-84
2022/10/19 07:37:39;;;;;;;6.80;3.22;;;;;;;;;;4970847;28;20026;-84
2022/10/19 07:40:05;;;;;;;5.57;3.58;;;;;;;;;;4977860;28;20089;-84
2022/10/19 07:42:31;;;;;;;6.90;2.97;;;;;;;;;;4987965;28;20037;-84
2022/10/19 07:44:56;;;;;;;7.10;3.30;;;;;;;;;;4992903;28;20026;-84
2022/10/19 07:47:21;;;;;;;7.15;3.67;;;;;;;;;;4988744;28;20037;-83
2022/10/19 07:49:47;;;;;;;5.90;3.40;;;;;;;;;;4988740;28;20034;-83
2022/10/19 07:52:12;;;;;;;6.05;3.50;;;;;;;;;;4972051;28;20057;-83
2022/10/19 07:54:39;;;;;;;5.63;3.28;;;;;;;;;;4989990;28;20371;-83
2022/10/19 07:57:04;;;;;;;5.25;3.55;;;;;;;;;;4986661;28;20033;-83
2022/10/19 07:59:30;;;;;;;8.00;3.92;;;;;;;;;;4991745;28;20027;-83
2022/10/19 08:01:56;;;;;;;5.30;3.53;;;;;;;;;;4990776;28;20394;-83
2022/10/19 08:04:21;;;;;;;8.05;4.30;;;;;;;;;;4985329;28;20030;-83
2022/10/19 08:06:47;;;;;;;7.03;3.45;;;;;;;;;;4998189;28;20107;-83
2022/10/19 08:09:13;;;;;;;7.25;3.70;;;;;;;;;;4969976;28;21121;-83
2022/10/19 08:11:39;;;;;;;6.47;3.78;;;;;;;;;;4982906;28;20426;-83
2022/10/19 08:14:04;;;;;;;7.18;4.05;;;;;;;;;;4972151;28;20026;-83
2022/10/19 08:16:36;;;;;;;5.18;3.50;;;;;;;;;;4983399;28;20018;-83
2022/10/19 08:19:06;;;;;;;5.60;3.67;;;;;;;;;;4981139;28;20496;-83
2022/10/19 08:21:31;;;;;;;8.43;3.78;;;;;;;;;;4989503;28;20033;-84
2022/10/19 08:23:57;;;;;;;8.02;4.20;;;;;;;;;;5001913;28;20047;-83
2022/10/19 08:26:23;;;;;;;6.30;4.20;;;;;;;;;;4975162;28;20418;-83
2022/10/19 08:28:49;;;;;;;9.57;4.22;;;;;;;;;;4986091;28;20453;-83
2022/10/19 08:31:18;;;;;;;6.22;3.80;;;;;;;;;;4984516;28;20030;-83
2022/10/19 08:33:44;;;;;;;6.47;3.70;;;;;;;;;;4988378;28;20026;-83
2022/10/19 08:36:11;;;;;;;6.70;3.83;;;;;;;;;;4993598;28;20397;-83
2022/10/19 08:38:39;;;;;;;6.00;3.53;;;;;;;;;;4989505;28;20026;-82
2022/10/19 08:41:21;;;;;;;6.82;3.65;;;;;;;;;;4970257;28;20433;-82
2022/10/19 08:43:57;;;;;;;9.50;3.75;;;;;;;;;;4991668;28;20033;-83
2022/10/19 08:47:03;;;;;;;6.82;3.53;;;;;;;;;;4979360;28;20038;-83
2022/10/19 08:49:30;;;;;;;7.15;3.30;;;;;;;;;;4970139;28;20076;-82
2022/10/19 08:52:30;;;;;;;6.55;3.95;;;;;;;;;;4998596;28;20610;-82
2022/10/19 08:54:59;;;;;;;6.45;3.35;;;;;;;;;;4970414;28;20430;-82
2022/10/19 08:57:49;;;;;;;6.35;3.28;;;;;;;;;;4994792;28;20033;-83
2022/10/19 09:00:40;;;;;;;7.60;3.00;;;;;;;;;;4975951;28;20537;-82
2022/10/19 09:03:28;;;;;;;5.28;3.25;;;;;;;;;;4996335;28;20042;-83
2022/10/19 09:06:15;;;;;;;7.15;3.00;;;;;;;;;;4996260;28;20494;-82
2022/10/19 09:08:40;;;;;;;8.07;3.28;;;;;;;;;;4974392;28;20101;-83
2022/10/19 09:11:09;;;;;;;5.55;3.17;;;;;;;;;;4996967;28;20108;-82
2022/10/19 09:13:40;;;;;;;4.38;2.75;;;;;;;;;;4993177;28;20398;-83
2022/10/19 09:16:11;;;;;;;8.20;2.97;;;;;;;;;;4993937;28;20493;-83
2022/10/19 09:18:37;;;;;;;5.32;2.78;;;;;;;;;;4976670;28;20146;-82
2022/10/19 09:21:05;;;;;;;7.82;3.28;;;;;;;;;;4980151;28;20139;-83
2022/10/19 09:23:36;;;;;;;8.10;2.45;;;;;;;;;;4989859;28;20028;-83
2022/10/19 09:26:04;;;;;;;5.75;2.53;;;;;;;;;;4993019;28;20437;-83
2022/10/19 09:28:54;;;;;;;5.65;2.63;;;;;;;;;;5000411;28;20421;-83
2022/10/19 09:31:37;;;;;;;6.82;2.15;;;;;;;;;;4982138;28;20050;-82
2022/10/19 09:34:22;;;;;;;3.13;2.10;;;;;;;;;;4990560;28;20042;-81
2022/10/19 09:36:56;;;;;;;4.57;1.80;;;;;;;;;;4992791;28;20041;-83
2022/10/19 09:39:22;;;;;;;4.78;1.80;;;;;;;;;;4987852;28;20165;-83
2022/10/19 09:41:54;;;;;;;5.47;2.30;;;;;;;;;;4990395;28;20055;-83
2022/10/19 09:44:21;;;;;;;5.30;1.60;;;;;;;;;;4983475;28;20522;-83
2022/10/19 09:47:24;;;;;;;5.25;2.05;;;;;;;;;;4995433;28;20035;-83
2022/10/19 09:49:49;;;;;;;5.57;2.00;;;;;;;;;;4976377;28;20080;-83
2022/10/19 09:52:29;;;;;;;3.80;1.80;;;;;;;;;;4991795;28;20026;-83
2022/10/19 09:55:04;;;;;;;2.97;1.58;;;;;;;;;;4988711;28;20494;-83
2022/10/19 09:57:30;;;;;;;4.18;1.40;;;;;;;;;;4989249;28;20538;-83
2022/10/19 09:59:55;;;;;;;4.28;1.70;;;;;;;;;;4992049;28;20153;-84
2022/10/19 10:02:29;;;;;;;3.00;1.70;;;;;;;;;;4991013;28;20030;-83
2022/10/19 10:05:13;;;;;;;3.28;1.52;;;;;;;;;;4986968;28;20061;-83
2022/10/19 10:07:39;;;;;;;4.65;1.70;;;;;;;;;;4991469;28;20030;-83
2022/10/19 10:10:09;;;;;;;4.10;1.70;;;;;;;;;;4989640;28;20378;-83
2022/10/19 10:12:35;;;;;;;8.43;2.00;;;;;;;;;;4990027;28;20485;-83
2022/10/19 10:15:05;;;;;;;5.40;2.10;;;;;;;;;;4981072;28;20030;-83
2022/10/19 10:17:30;;;;;;;3.78;1.80;;;;;;;;;;4982786;28;20434;-83
2022/10/19 10:19:59;;;;;;;4.30;1.90;;;;;;;;;;4974229;28;20034;-83
2022/10/19 10:22:31;;;;;;;3.00;1.70;;;;;;;;;;4973116;28;20041;-83
2022/10/19 10:24:57;;;;;;;4.00;1.70;;;;;;;;;;4986809;28;20178;-83
2022/10/19 10:27:34;;;;;;;2.95;1.38;;;;;;;;;;4973644;28;20102;-83
2022/10/19 10:30:06;;;;;;;3.17;1.40;;;;;;;;;;4993508;28;20033;-83
2022/10/19 10:32:36;;;;;;;2.55;1.35;;;;;;;;;;4991634;28;20037;-83
2022/10/19 10:35:05;;;;;;;4.40;1.48;;;;;;;;;;4974121;28;20050;-83
2022/10/19 10:37:45;;;;;;;3.88;1.63;;;;;;;;;;4985842;28;20041;-83
2022/10/19 10:40:20;;;;;;;4.00;1.70;;;;;;;;;;4991156;28;20032;-83
2022/10/19 10:42:47;;;;;;;4.65;1.25;;;;;;;;;;4996960;28;20026;-83
2022/10/19 10:45:24;;;;;;;4.10;1.50;;;;;;;;;;4980862;28;20073;-83
2022/10/19 10:47:51;;;;;;;4.38;1.40;;;;;;;;;;4980372;28;20379;-83
2022/10/19 10:50:19;;;;;;;4.35;1.50;;;;;;;;;;4986729;28;20026;-82
2022/10/19 10:53:33;;;;;;;2.47;1.20;;;;;;;;;;4976764;28;20379;-83
2022/10/19 10:55:58;;;;;;;4.85;1.40;;;;;;;;;;4971290;28;20035;-82
2022/10/19 10:58:52;;;;;;;3.63;1.30;;;;;;;;;;4994057;28;20100;-82
2022/10/19 11:01:21;;;;;;;3.20;1.10;;;;;;;;;;4967548;28;20061;-83
2022/10/19 11:04:04;;;;;;;4.10;1.45;;;;;;;;;;4966386;28;20038;-82
2022/10/19 11:06:33;;;;;;;3.65;1.48;;;;;;;;;;4970334;28;20314;-82
2022/10/19 11:09:18;;;;;;;4.40;1.30;;;;;;;;;;4987922;28;20505;-82
2022/10/19 11:11:46;;;;;;;3.42;1.27;;;;;;;;;;4989015;28;20042;-83
2022/10/19 11:14:43;;;;;;;5.03;1.00;;;;;;;;;;4992715;28;20058;-82
2022/10/19 11:17:18;;;;;;;5.18;1.20;;;;;;;;;;4969752;28;20091;-83
2022/10/19 11:19:44;;;;;;;2.95;1.00;;;;;;;;;;4984796;28;20022;-84
2022/10/19 11:22:22;;;;;;;4.05;1.45;;;;;;;;;;4971959;28;20026;-83
2022/10/19 11:25:03;;;;;;;4.00;1.08;;;;;;;;;;4976993;28;20117;-82
2022/10/19 11:27:31;;;;;;;3.53;1.08;;;;;;;;;;4973165;28;20030;-83
2022/10/19 11:30:08;;;;;;;2.45;1.02;;;;;;;;;;4972917;28;20034;-82
2022/10/19 11:32:57;;;;;;;4.47;1.25;;;;;;;;;;4979057;28;20022;-83
2022/10/19 11:35:43;;;;;;;3.10;1.00;;;;;;;;;;4992372;28;20498;-82
2022/10/19 11:38:32;;;;;;;3.53;1.10;;;;;;;;;;4985423;28;20022;-83
2022/10/19 11:41:09;;;;;;;2.45;0.80;;;;;;;;;;4986995;28;20073;-82
2022/10/19 11:43:56;;;;;;;4.25;1.00;;;;;;;;;;4989927;28;20099;-82
2022/10/19 11:46:27;;;;;;;3.08;1.08;;;;;;;;;;4985053;28;20057;-82
2022/10/19 11:49:17;;;;;;;2.53;0.73;;;;;;;;;;4988559;28;21303;-83
2022/10/19 11:51:56;;;;;;;4.82;1.20;;;;;;;;;;4987217;28;20457;-82
2022/10/19 11:54:49;;;;;;;4.53;1.13;;;;;;;;;;4986953;28;20624;-83
2022/10/19 11:57:29;;;;;;;4.90;1.08;;;;;;;;;;4979346;28;20471;-83
2022/10/19 12:00:02;;;;;;;3.40;0.93;;;;;;;;;;4967585;28;20041;-83
2022/10/19 12:02:42;;;;;;;2.37;0.87;;;;;;;;;;4990631;28;20482;-83
2022/10/19 12:05:15;;;;;;;2.58;1.00;;;;;;;;;;4978055;28;20026;-83
2022/10/19 12:08:00;;;;;;;2.40;1.00;;;;;;;;;;4968643;28;20117;-83
2022/10/19 12:10:57;;;;;;;2.42;1.00;;;;;;;;;;4984602;28;20061;-83
2022/10/19 12:13:31;;;;;;;1.83;0.90;;;;;;;;;;4975316;28;20481;-83
2022/10/19 12:15:58;;;;;;;3.40;1.20;;;;;;;;;;4985875;28;20022;-83
2022/10/19 12:18:34;;;;;;;2.60;1.10;;;;;;;;;;4993830;28;20026;-82
2022/10/19 12:21:16;;;;;;;3.97;1.00;;;;;;;;;;4987556;28;20445;-82
2022/10/19 12:23:45;;;;;;;2.15;1.13;;;;;;;;;;4969481;28;20045;-82
2022/10/19 12:26:15;;;;;;;2.47;1.20;;;;;;;;;;4986905;28;20030;-83
2022/10/19 12:28:46;;;;;;;2.80;1.10;;;;;;;;;;4990355;28;20077;-83
2022/10/19 12:31:12;;;;;;;3.83;1.48;;;;;;;;;;4990226;28;20030;-83
2022/10/19 12:33:39;;;;;;;2.72;1.00;;;;;;;;;;4985597;28;20026;-82
2022/10/19 12:36:43;;;;;;;4.97;1.60;;;;;;;;;;4970584;28;20110;-83
2022/10/19 12:39:16;;;;;;;3.30;1.17;;;;;;;;;;4985821;28;20378;-83
2022/10/19 12:41:51;;;;;;;;;;;;;;;;;;4991214;28;20113;-82
2022/10/19 12:44:46;;;;;;;3.05;1.20;;;;;;;;;;4991947;28;19914;-82
2022/10/19 12:47:17;;;;;;;3.42;1.35;;;;;;;;;;4986277;28;20033;-82
2022/10/19 12:49:46;;;;;;;3.13;1.38;;;;;;;;;;4987226;28;20096;-82
2022/10/19 12:52:13;;;;;;;3.35;1.30;;;;;;;;;;4971286;28;20034;-82
2022/10/19 12:54:41;;;;;;;2.22;1.10;;;;;;;;;;4989528;28;20433;-83
2022/10/19 12:57:25;;;;;;;3.25;1.00;;;;;;;;;;4991902;28;20458;-83
2022/10/19 13:00:22;;;;;;;3.38;1.40;;;;;;;;;;4985841;28;20031;-82
2022/10/19 13:03:03;;;;;;;3.80;1.45;;;;;;;;;;4987158;28;20505;-82
2022/10/19 13:05:31;;;;;;;4.78;1.20;;;;;;;;;;4991869;28;20031;-82
2022/10/19 13:07:59;;;;;;;3.20;1.00;;;;;;;;;;4987820;28;20108;-82
2022/10/19 13:10:27;;;;;;;3.83;1.25;;;;;;;;;;4989757;28;20033;-82
2022/10/19 13:12:54;;;;;;;3.00;1.30;;;;;;;;;;4981119;28;20072;-82
2022/10/19 13:15:35;;;;;;;5.25;1.40;;;;;;;;;;4989011;28;20026;-82
2022/10/19 13:18:11;;;;;;;2.90;1.25;;;;;;;;;;4971570;28;20101;-82
2022/10/19 13:20:39;;;;;;;3.53;1.20;;;;;;;;;;4971769;28;20042;-81
2022/10/19 13:23:08;;;;;;;2.95;1.10;;;;;;;;;;4990638;28;20033;-82
2022/10/19 13:25:38;;;;;;;2.10;0.90;;;;;;;;;;4974622;28;20042;-82
2022/10/19 13:28:06;;;;;;;2.65;1.10;;;;;;;;;;4989583;28;20062;-82
2022/10/19 13:30:37;;;;;;;2.83;1.10;;;;;;;;;;4987510;28;20022;-82
2022/10/19 13:33:23;;;;;;;3.88;1.10;;;;;;;;;;4991214;28;20057;-82
2022/10/19 13:36:05;;;;;;;2.58;1.10;;;;;;;;;;4976726;28;20047;-81
2022/10/19 13:38:33;;;;;;;5.70;1.23;;;;;;;;;;4993511;28;20034;-82
2022/10/19 13:41:20;;;;;;;3.30;1.25;;;;;;;;;;4988363;28;20030;-82
2022/10/19 13:43:51;;;;;;;4.60;1.23;;;;;;;;;;4976990;28;20410;-82
2022/10/19 13:46:29;;;;;;;1.50;0.90;;;;;;;;;;4977652;28;20026;-82
2022/10/19 13:49:01;;;;;;;2.17;0.95;;;;;;;;;;4977086;28;20056;-82
2022/10/19 13:51:47;;;;;;;3.15;1.08;;;;;;;;;;4966396;28;20446;-82
2022/10/19 13:54:19;;;;;;;2.10;1.00;;;;;;;;;;4980154;28;20034;-82
2022/10/19 13:57:22;;;;;;;4.80;1.10;;;;;;;;;;4968210;28;20026;-82
2022/10/19 14:00:06;;;;;;;2.80;1.00;;;;;;;;;;4992415;28;20493;-82
2022/10/19 14:02:49;;;;;;;2.75;0.82;;;;;;;;;;4982264;28;20110;-82
2022/10/19 14:05:36;;;;;;;3.92;1.10;;;;;;;;;;4985821;28;20397;-82
2022/10/19 14:08:20;;;;;;;4.13;1.23;;;;;;;;;;4975175;28;20048;-82
2022/10/19 14:10:50;;;;;;;3.25;1.08;;;;;;;;;;4967179;28;20113;-82
2022/10/19 14:13:16;;;;;;;2.65;1.30;;;;;;;;;;4984100;28;20037;-82
2022/10/19 14:15:51;;;;;;;2.88;1.27;;;;;;;;;;4964659;28;20026;-82
2022/10/19 14:18:27;;;;;;;3.25;1.20;;;;;;;;;;4964996;28;20026;-81
2022/10/19 14:21:02;;;;;;;2.40;1.20;;;;;;;;;;4979660;28;20082;-82
2022/10/19 14:23:30;;;;;;;2.88;1.20;;;;;;;;;;4986412;28;20417;-83
2022/10/19 14:26:02;;;;;;;5.10;1.45;;;;;;;;;;4988286;28;20121;-83
2022/10/19 14:28:29;;;;;;;3.28;1.25;;;;;;;;;;4988525;28;20038;-83
2022/10/19 14:30:59;;;;;;;3.10;1.38;;;;;;;;;;4988861;28;20368;-82
2022/10/19 14:33:27;;;;;;;4.20;1.67;;;;;;;;;;4993173;28;20537;-82
2022/10/19 14:35:53;;;;;;;3.95;1.52;;;;;;;;;;4965572;28;20051;-82
2022/10/19 14:38:26;;;;;;;4.45;1.73;;;;;;;;;;4982093;28;20030;-82
2022/10/19 14:40:52;;;;;;;4.45;1.52;;;;;;;;;;4958762;28;20035;-82
2022/10/19 14:43:22;;;;;;;2.67;1.25;;;;;;;;;;4986120;28;20569;-82
2022/10/19 14:46:05;;;;;;;3.55;1.52;;;;;;;;;;4982318;28;20031;-82
2022/10/19 14:48:32;;;;;;;3.53;1.50;;;;;;;;;;4967137;28;20384;-82
2022/10/19 14:51:00;;;;;;;2.80;1.48;;;;;;;;;;4977106;28;20212;-82
2022/10/19 14:53:51;;;;;;;2.88;1.50;;;;;;;;;;4981123;28;20577;-82
2022/10/19 14:56:16;;;;;;;5.93;1.88;;;;;;;;;;4976523;28;20620;-83
2022/10/19 14:59:02;;;;;;;4.55;1.52;;;;;;;;;;4962172;28;20134;-83
2022/10/19 15:01:27;;;;;;;4.82;1.73;;;;;;;;;;4963346;28;20031;-82
2022/10/19 15:03:53;;;;;;;2.92;1.60;;;;;;;;;;4983637;28;20437;-82
2022/10/19 15:06:21;;;;;;;3.35;1.63;;;;;;;;;;4989500;28;20039;-83
2022/10/19 15:08:52;;;;;;;4.53;1.80;;;;;;;;;;4967011;28;20034;-82
2022/10/19 15:11:30;;;;;;;4.57;1.90;;;;;;;;;;4977863;28;20034;-83